Time;durP1;ratioP1;P1;durP2;ratioP2;P2;SDS_P1;SDS_P2;PMS_P1;PMS_P2;Temp;Humidity;BMP_temperature;BMP_pressure;BME280_temperature;BME280_humidity;BME280_pressure;Samples;Min_cycle;Max_cycle;Signal;HPM_P1;HPM_P2
2021/11/12 00:03:49;;;;;;;162.63;53.60;;;;;;;;;;5055810;28;20385;-65
2021/11/12 00:14:44;;;;;;;164.27;51.75;;;;;;;;;;5055487;28;20052;-66
2021/11/12 00:17:11;;;;;;;158.93;52.28;;;;;;;;;;5055576;28;20116;-64
2021/11/12 00:19:38;;;;;;;158.27;51.70;;;;;;;;;;5055477;28;20531;-63
2021/11/12 00:22:04;;;;;;;160.73;50.35;;;;;;;;;;5037367;28;20052;-63
2021/11/12 00:24:31;;;;;;;136.98;52.47;;;;;;;;;;5037395;28;20168;-63
2021/11/12 00:26:58;;;;;;;147.70;53.47;;;;;;;;;;5055591;28;20072;-64
2021/11/12 00:29:25;;;;;;;131.55;46.85;;;;;;;;;;5055277;28;20017;-63
2021/11/12 00:32:10;;;;;;;117.20;46.95;;;;;;;;;;5055206;28;20048;-64
2021/11/12 00:34:56;;;;;;;124.55;49.15;;;;;;;;;;5037174;28;20474;-64
2021/11/12 00:40:10;;;;;;;119.68;46.97;;;;;;;;;;5055061;28;20036;-64
2021/11/12 00:45:23;;;;;;;103.90;40.38;;;;;;;;;;5055086;28;20111;-65
2021/11/12 00:48:35;;;;;;;;;;;;;;;;;;5055373;28;20063;-66
2021/11/12 00:55:41;;;;;;;114.50;42.83;;;;;;;;;;5054716;28;20099;-64
2021/11/12 00:58:09;;;;;;;126.30;44.80;;;;;;;;;;5054715;28;20511;-63
2021/11/12 01:00:35;;;;;;;103.15;40.53;;;;;;;;;;5036441;28;20028;-64
2021/11/12 01:03:01;;;;;;;108.72;41.58;;;;;;;;;;5036682;28;20048;-63
2021/11/12 01:05:30;;;;;;;103.82;42.55;;;;;;;;;;5054564;28;20078;-64
2021/11/12 01:07:57;;;;;;;94.50;39.58;;;;;;;;;;5054568;28;20028;-63
2021/11/12 01:10:23;;;;;;;90.22;39.00;;;;;;;;;;5054529;28;20068;-64
2021/11/12 01:12:50;;;;;;;89.90;37.30;;;;;;;;;;5054581;28;20056;-66
2021/11/12 01:15:16;;;;;;;95.50;38.72;;;;;;;;;;5054344;28;20055;-65
2021/11/12 01:17:44;;;;;;;98.07;38.65;;;;;;;;;;5054411;28;20359;-66
2021/11/12 01:20:11;;;;;;;86.38;35.03;;;;;;;;;;5054333;28;20083;-65
2021/11/12 01:22:38;;;;;;;78.50;35.78;;;;;;;;;;5036274;28;20035;-63
2021/11/12 01:25:05;;;;;;;84.35;37.55;;;;;;;;;;5054241;28;20108;-64
2021/11/12 01:27:33;;;;;;;92.78;39.50;;;;;;;;;;5036190;28;20025;-66
2021/11/12 01:30:00;;;;;;;95.25;40.55;;;;;;;;;;5054218;28;20106;-62
2021/11/12 01:32:27;;;;;;;93.22;40.10;;;;;;;;;;5053771;28;20029;-64
2021/11/12 01:34:55;;;;;;;93.45;39.13;;;;;;;;;;5035788;28;20065;-65
2021/11/12 01:37:27;;;;;;;84.97;37.65;;;;;;;;;;5053945;28;20079;-63
2021/11/12 01:39:57;;;;;;;82.38;34.25;;;;;;;;;;5036030;28;20032;-63
2021/11/12 01:42:24;;;;;;;77.45;33.60;;;;;;;;;;5053786;28;20028;-64
2021/11/12 01:44:56;;;;;;;88.43;36.95;;;;;;;;;;5035984;28;20405;-64
2021/11/12 01:47:39;;;;;;;80.38;33.22;;;;;;;;;;5035845;28;20064;-63
2021/11/12 01:50:13;;;;;;;79.10;34.83;;;;;;;;;;5053779;28;20025;-63
2021/11/12 01:52:43;;;;;;;81.47;35.08;;;;;;;;;;5035891;28;20021;-66
2021/11/12 01:55:14;;;;;;;81.65;36.03;;;;;;;;;;5053566;28;20025;-64
2021/11/12 01:57:55;;;;;;;84.68;37.00;;;;;;;;;;5053631;28;20024;-64
2021/11/12 02:00:23;;;;;;;91.97;37.70;;;;;;;;;;5035691;28;20029;-64
2021/11/12 02:02:49;;;;;;;95.55;37.92;;;;;;;;;;5053490;28;20140;-64
2021/11/12 02:05:17;;;;;;;89.57;38.50;;;;;;;;;;5053197;28;20063;-66
2021/11/12 02:07:43;;;;;;;94.40;39.42;;;;;;;;;;5053424;28;20147;-64
2021/11/12 02:10:12;;;;;;;98.68;38.50;;;;;;;;;;5053461;28;20021;-63
2021/11/12 02:12:56;;;;;;;102.43;39.88;;;;;;;;;;5035142;28;20144;-65
2021/11/12 02:15:23;;;;;;;102.85;39.50;;;;;;;;;;5034893;28;20036;-66
2021/11/12 02:17:57;;;;;;;98.30;39.95;;;;;;;;;;5053285;28;20029;-63
2021/11/12 02:20:47;;;;;;;102.43;40.88;;;;;;;;;;5053343;28;20025;-64
2021/11/12 02:23:13;;;;;;;94.82;38.80;;;;;;;;;;5035374;28;20025;-63
2021/11/12 02:25:42;;;;;;;103.28;40.72;;;;;;;;;;5053156;28;20120;-63
2021/11/12 02:28:15;;;;;;;99.05;39.50;;;;;;;;;;5053133;28;20378;-63
2021/11/12 02:30:46;;;;;;;95.82;38.67;;;;;;;;;;5053387;28;20373;-62
2021/11/12 02:33:15;;;;;;;91.35;37.95;;;;;;;;;;5053127;28;20025;-63
2021/11/12 02:35:58;;;;;;;78.53;34.45;;;;;;;;;;5052919;28;20036;-63
2021/11/12 02:38:24;;;;;;;80.25;34.97;;;;;;;;;;5053060;28;20066;-63
2021/11/12 02:40:51;;;;;;;79.53;34.90;;;;;;;;;;5053028;28;20021;-63
2021/11/12 02:43:18;;;;;;;80.65;35.30;;;;;;;;;;5052973;28;20461;-64
2021/11/12 02:45:44;;;;;;;72.75;34.35;;;;;;;;;;5052920;28;20465;-63
2021/11/12 02:48:11;;;;;;;75.63;35.10;;;;;;;;;;5053216;28;20036;-62
2021/11/12 02:50:41;;;;;;;70.55;32.80;;;;;;;;;;5052939;28;20493;-63
2021/11/12 02:53:13;;;;;;;75.90;33.80;;;;;;;;;;5052873;28;20021;-63
2021/11/12 02:55:40;;;;;;;75.35;35.53;;;;;;;;;;5052805;28;20021;-63
2021/11/12 02:58:07;;;;;;;75.03;34.15;;;;;;;;;;5052827;28;20111;-64
2021/11/12 03:00:36;;;;;;;82.00;33.65;;;;;;;;;;5052842;28;20029;-63
2021/11/12 03:03:02;;;;;;;82.30;37.53;;;;;;;;;;5034568;28;20025;-64
2021/11/12 03:05:30;;;;;;;75.93;36.40;;;;;;;;;;5052754;28;20100;-64
2021/11/12 03:07:57;;;;;;;72.70;34.72;;;;;;;;;;5052784;28;20194;-61
2021/11/12 03:10:24;;;;;;;76.35;37.78;;;;;;;;;;5052747;28;20489;-63
2021/11/12 03:12:50;;;;;;;89.25;40.92;;;;;;;;;;5052134;28;20079;-62
2021/11/12 03:15:17;;;;;;;103.45;42.88;;;;;;;;;;5052563;28;20029;-62
2021/11/12 03:17:45;;;;;;;95.93;39.28;;;;;;;;;;5052662;28;20031;-63
2021/11/12 03:20:13;;;;;;;101.65;41.35;;;;;;;;;;5052678;28;20040;-63
2021/11/12 03:22:46;;;;;;;98.53;41.80;;;;;;;;;;5034659;28;20523;-65
2021/11/12 03:25:24;;;;;;;99.78;44.13;;;;;;;;;;5052648;28;20033;-64
2021/11/12 03:28:08;;;;;;;103.45;43.03;;;;;;;;;;5053335;28;20032;-66
2021/11/12 04:00:34;;;;;;;79.85;36.17;;;;;;;;;;5055919;28;20032;-64
2021/11/12 04:41:18;;;;;;;74.32;33.83;;;;;;;;;;5054829;28;20079;-65
2021/11/12 04:49:58;;;;;;;75.40;32.58;;;;;;;;;;5013514;28;20071;-65
2021/11/12 05:25:43;;;;;;;81.65;36.20;;;;;;;;;;5032556;28;20040;-66
2021/11/12 05:52:14;;;;;;;68.03;29.60;;;;;;;;;;5033101;28;20075;-64
2021/11/12 05:57:26;;;;;;;75.18;34.20;;;;;;;;;;5033580;28;20036;-65
2021/11/12 05:59:52;;;;;;;79.05;34.42;;;;;;;;;;5033380;28;20022;-63
2021/11/12 06:02:18;;;;;;;77.80;36.08;;;;;;;;;;5033740;28;20744;-64
2021/11/12 06:04:45;;;;;;;78.55;35.20;;;;;;;;;;5033633;28;20025;-65
2021/11/12 06:07:12;;;;;;;78.32;37.55;;;;;;;;;;5033567;28;20080;-65
2021/11/12 06:09:38;;;;;;;74.07;33.63;;;;;;;;;;5033100;28;20064;-65
2021/11/12 06:12:06;;;;;;;81.93;35.17;;;;;;;;;;5041542;28;20083;-64
2021/11/12 06:14:32;;;;;;;73.68;33.83;;;;;;;;;;5053234;28;20033;-63
2021/11/12 06:16:58;;;;;;;73.63;35.63;;;;;;;;;;5035345;28;20325;-63
2021/11/12 06:19:25;;;;;;;83.38;37.28;;;;;;;;;;5053313;28;20104;-63
2021/11/12 06:21:51;;;;;;;76.72;34.58;;;;;;;;;;5052994;28;20108;-65
2021/11/12 06:24:17;;;;;;;71.35;35.08;;;;;;;;;;5050690;28;20476;-64
2021/11/12 06:26:44;;;;;;;75.43;36.70;;;;;;;;;;5052873;28;20029;-65
2021/11/12 06:29:10;;;;;;;78.18;38.58;;;;;;;;;;5052978;28;20059;-65
2021/11/12 06:31:37;;;;;;;81.97;39.05;;;;;;;;;;5051391;28;20128;-62
2021/11/12 06:34:03;;;;;;;65.43;31.00;;;;;;;;;;5052771;28;20033;-63
2021/11/12 06:36:29;;;;;;;57.15;26.13;;;;;;;;;;5051205;28;20069;-63
2021/11/12 06:38:56;;;;;;;55.45;26.90;;;;;;;;;;5052707;28;20452;-66
2021/11/12 06:49:24;;;;;;;68.70;33.17;;;;;;;;;;5052571;28;20036;-63
2021/11/12 06:51:52;;;;;;;70.25;33.78;;;;;;;;;;5052708;28;20108;-62
2021/11/12 06:54:18;;;;;;;67.85;32.88;;;;;;;;;;5052708;28;20377;-63
2021/11/12 06:56:46;;;;;;;74.95;35.95;;;;;;;;;;5052663;28;20112;-64
2021/11/12 06:59:12;;;;;;;76.75;37.03;;;;;;;;;;5052644;28;20021;-67
2021/11/12 07:01:39;;;;;;;76.70;34.13;;;;;;;;;;5052906;28;20029;-65
2021/11/12 07:04:05;;;;;;;84.68;36.13;;;;;;;;;;5055370;28;20111;-65
2021/11/12 07:06:31;;;;;;;86.03;36.00;;;;;;;;;;5056707;28;20020;-64
2021/11/12 07:08:58;;;;;;;84.15;37.25;;;;;;;;;;5055116;28;20082;-62
2021/11/12 07:11:24;;;;;;;89.05;40.58;;;;;;;;;;5059041;28;20083;-64
2021/11/12 07:13:50;;;;;;;102.28;49.95;;;;;;;;;;5076532;28;20020;-64
2021/11/12 07:16:16;;;;;;;85.22;39.72;;;;;;;;;;5076483;28;20083;-63
2021/11/12 07:18:42;;;;;;;113.07;49.75;;;;;;;;;;5076437;28;20029;-64
2021/11/12 07:21:09;;;;;;;95.05;46.05;;;;;;;;;;5058365;28;20036;-64
2021/11/12 07:23:35;;;;;;;76.15;38.45;;;;;;;;;;5076731;28;20107;-63
2021/11/12 07:26:01;;;;;;;80.38;38.90;;;;;;;;;;5076282;28;20036;-64
2021/11/12 07:28:28;;;;;;;81.68;37.95;;;;;;;;;;5076371;28;20020;-65
2021/11/12 07:30:55;;;;;;;59.70;29.80;;;;;;;;;;5076579;28;20028;-66
2021/11/12 07:33:22;;;;;;;68.07;30.92;;;;;;;;;;5076268;28;20035;-66
2021/11/12 07:35:51;;;;;;;65.43;31.88;;;;;;;;;;5075654;28;20029;-65
2021/11/12 07:39:04;;;;;;;60.60;31.85;;;;;;;;;;5076162;28;20445;-61
2021/11/12 07:41:20;;;;;;;71.38;32.42;;;;;;;;;;5064553;28;20051;-63
2021/11/12 07:49:01;;;;;;;60.38;30.60;;;;;;;;;;5054817;28;20191;-64
2021/11/12 07:51:28;;;;;;;52.65;25.25;;;;;;;;;;5055807;28;20108;-66
2021/11/12 07:53:54;;;;;;;49.53;25.08;;;;;;;;;;5055866;28;20017;-67
2021/11/12 07:56:21;;;;;;;52.95;26.20;;;;;;;;;;5055775;28;20036;-65
2021/11/12 07:58:48;;;;;;;53.13;25.30;;;;;;;;;;5055778;28;20029;-66
2021/11/12 08:01:14;;;;;;;63.13;26.55;;;;;;;;;;5055749;28;20029;-64
2021/11/12 08:03:42;;;;;;;54.60;25.15;;;;;;;;;;5037774;28;20032;-64
2021/11/12 08:06:11;;;;;;;45.38;23.75;;;;;;;;;;5055500;28;20029;-65
2021/11/12 08:08:39;;;;;;;52.38;25.02;;;;;;;;;;5055608;28;20032;-64
2021/11/12 08:11:14;;;;;;;47.05;24.15;;;;;;;;;;5054324;28;20462;-65
2021/11/12 08:13:55;;;;;;;59.53;27.02;;;;;;;;;;5033826;28;20095;-64
2021/11/12 08:19:04;;;;;;;59.25;28.02;;;;;;;;;;5034860;28;20462;-66
2021/11/12 08:32:57;;;;;;;43.60;22.80;;;;;;;;;;5035053;28;20547;-66
2021/11/12 08:35:53;;;;;;;49.47;25.15;;;;;;;;;;5035151;28;20052;-66
2021/11/12 08:43:25;;;;;;;49.72;27.65;;;;;;;;;;5033181;28;20108;-64
2021/11/12 08:48:22;;;;;;;48.50;26.35;;;;;;;;;;5034547;28;19913;-64
2021/11/12 08:50:48;;;;;;;58.97;30.10;;;;;;;;;;5034908;28;20075;-64
2021/11/12 08:53:16;;;;;;;50.55;26.25;;;;;;;;;;5033929;28;20025;-66
2021/11/12 08:55:43;;;;;;;42.22;23.08;;;;;;;;;;5016583;28;20044;-63
2021/11/12 08:58:13;;;;;;;54.42;27.85;;;;;;;;;;5034679;28;20101;-63
2021/11/12 09:00:41;;;;;;;69.75;32.47;;;;;;;;;;5034697;28;20026;-62
2021/11/12 09:03:08;;;;;;;53.13;26.33;;;;;;;;;;5034673;28;20029;-65
2021/11/12 09:05:35;;;;;;;74.50;34.08;;;;;;;;;;5034682;28;20033;-62
2021/11/12 09:08:01;;;;;;;48.90;24.77;;;;;;;;;;5034244;28;20378;-64
2021/11/12 09:10:29;;;;;;;50.92;25.73;;;;;;;;;;5034296;28;20062;-63
2021/11/12 09:13:40;;;;;;;50.53;27.65;;;;;;;;;;5049356;28;20505;-63
2021/11/12 09:15:54;;;;;;;47.25;27.30;;;;;;;;;;5045661;28;20044;-67
2021/11/12 09:18:23;;;;;;;48.47;25.75;;;;;;;;;;5054287;28;20051;-66
2021/11/12 09:20:50;;;;;;;45.75;25.70;;;;;;;;;;5054231;28;20120;-63
2021/11/12 09:23:16;;;;;;;47.38;26.65;;;;;;;;;;5036234;28;20458;-63
2021/11/12 09:25:43;;;;;;;46.30;24.92;;;;;;;;;;5052695;28;20033;-65
2021/11/12 09:28:10;;;;;;;50.53;27.35;;;;;;;;;;5036181;28;20083;-65
2021/11/12 09:30:36;;;;;;;52.03;30.42;;;;;;;;;;5036050;28;20114;-68
2021/11/12 09:33:03;;;;;;;51.90;30.13;;;;;;;;;;5053866;28;20029;-64
2021/11/12 09:35:29;;;;;;;53.80;30.73;;;;;;;;;;5053750;28;20041;-63
2021/11/12 09:37:56;;;;;;;55.20;30.58;;;;;;;;;;5054024;28;20067;-65
2021/11/12 09:40:22;;;;;;;50.78;27.85;;;;;;;;;;5036064;28;20163;-64
2021/11/12 09:42:49;;;;;;;48.38;28.50;;;;;;;;;;5053921;28;20150;-65
2021/11/12 09:45:16;;;;;;;51.03;29.38;;;;;;;;;;5035923;28;20128;-64
2021/11/12 09:47:42;;;;;;;48.20;26.95;;;;;;;;;;5053813;28;20078;-67
2021/11/12 09:50:11;;;;;;;47.17;27.58;;;;;;;;;;5053696;28;20102;-65
2021/11/12 09:52:40;;;;;;;47.70;26.58;;;;;;;;;;5053381;28;20060;-68
2021/11/12 09:55:07;;;;;;;54.30;30.63;;;;;;;;;;5053603;28;20033;-64
2021/11/12 09:57:33;;;;;;;54.05;30.10;;;;;;;;;;5053757;28;20020;-65
2021/11/12 10:00:02;;;;;;;58.78;31.25;;;;;;;;;;5053804;28;20104;-65
2021/11/12 10:02:31;;;;;;;58.88;31.13;;;;;;;;;;5035628;28;20029;-64
2021/11/12 10:04:57;;;;;;;77.03;40.38;;;;;;;;;;5035583;28;20029;-65
2021/11/12 10:07:25;;;;;;;69.68;37.17;;;;;;;;;;5053505;28;20056;-63
2021/11/12 10:10:11;;;;;;;62.55;33.80;;;;;;;;;;5053420;28;20029;-68
2021/11/12 10:12:46;;;;;;;58.13;33.33;;;;;;;;;;5022555;28;20045;-64
2021/11/12 10:15:16;;;;;;;58.75;34.78;;;;;;;;;;5033154;28;20045;-66
2021/11/12 10:17:46;;;;;;;65.68;35.70;;;;;;;;;;5015646;28;20036;-66
2021/11/12 10:20:16;;;;;;;55.95;31.20;;;;;;;;;;5033261;28;20028;-65
2021/11/12 10:22:43;;;;;;;55.95;34.28;;;;;;;;;;5033319;28;20585;-66
2021/11/12 10:25:11;;;;;;;56.72;31.45;;;;;;;;;;5033263;28;20151;-66
2021/11/12 10:27:38;;;;;;;57.63;34.45;;;;;;;;;;5033237;28;20037;-67
2021/11/12 10:30:13;;;;;;;75.43;44.38;;;;;;;;;;5033227;28;20029;-66
2021/11/12 10:32:40;;;;;;;52.45;29.88;;;;;;;;;;5033155;28;20432;-67
2021/11/12 10:35:08;;;;;;;63.65;31.80;;;;;;;;;;5033275;28;20113;-66
2021/11/12 10:37:37;;;;;;;66.90;32.67;;;;;;;;;;5032750;28;20026;-66
2021/11/12 10:40:08;;;;;;;54.83;30.63;;;;;;;;;;5033094;28;20132;-66
2021/11/12 10:42:41;;;;;;;56.05;32.40;;;;;;;;;;5014920;28;20044;-66
2021/11/12 10:45:10;;;;;;;66.30;35.17;;;;;;;;;;5033084;28;20137;-65
2021/11/12 10:47:43;;;;;;;74.38;38.22;;;;;;;;;;5032988;28;20083;-64
2021/11/12 10:50:10;;;;;;;67.57;34.63;;;;;;;;;;5015275;28;20060;-65
2021/11/12 10:52:37;;;;;;;62.75;32.90;;;;;;;;;;5032881;28;20052;-65
2021/11/12 10:55:06;;;;;;;64.10;36.75;;;;;;;;;;5015110;28;20124;-65
2021/11/12 10:57:35;;;;;;;152.20;67.75;;;;;;;;;;5032786;28;20017;-64
2021/11/12 11:00:20;;;;;;;66.65;37.33;;;;;;;;;;5032838;28;20382;-64
2021/11/12 11:02:48;;;;;;;186.80;80.43;;;;;;;;;;5015012;28;20022;-65
2021/11/12 11:05:22;;;;;;;134.48;59.75;;;;;;;;;;5032477;28;20433;-63
2021/11/12 11:07:55;;;;;;;66.65;36.63;;;;;;;;;;5032816;28;20024;-65
2021/11/12 11:10:27;;;;;;;77.95;38.75;;;;;;;;;;5032620;28;20093;-65
2021/11/12 11:12:55;;;;;;;67.05;35.53;;;;;;;;;;5047048;28;20049;-65
2021/11/12 11:15:23;;;;;;;69.07;39.05;;;;;;;;;;5052481;28;20098;-64
2021/11/12 11:17:51;;;;;;;63.35;36.30;;;;;;;;;;5051661;28;20033;-64
2021/11/12 11:20:20;;;;;;;79.22;42.75;;;;;;;;;;5048892;28;20102;-64
2021/11/12 11:22:48;;;;;;;55.53;31.38;;;;;;;;;;5058284;28;20032;-63
2021/11/12 11:25:14;;;;;;;58.33;33.10;;;;;;;;;;5050863;28;20377;-66
2021/11/12 11:27:42;;;;;;;68.90;37.20;;;;;;;;;;5051293;28;20488;-65
2021/11/12 11:30:09;;;;;;;72.80;38.78;;;;;;;;;;5058398;28;20098;-65
2021/11/12 11:32:37;;;;;;;73.85;40.00;;;;;;;;;;5051838;28;20033;-64
2021/11/12 11:35:04;;;;;;;69.65;38.45;;;;;;;;;;5051002;28;20033;-64
2021/11/12 11:37:41;;;;;;;62.13;35.30;;;;;;;;;;5051316;28;20082;-66
2021/11/12 11:40:10;;;;;;;68.60;36.42;;;;;;;;;;5052298;28;20025;-63
2021/11/12 11:42:38;;;;;;;81.25;42.53;;;;;;;;;;5049618;28;20074;-63
2021/11/12 11:45:05;;;;;;;67.22;36.63;;;;;;;;;;5034057;28;20025;-64
2021/11/12 11:47:31;;;;;;;63.50;36.63;;;;;;;;;;5052148;28;20118;-64
2021/11/12 11:49:57;;;;;;;59.38;34.60;;;;;;;;;;5036508;28;20021;-64
2021/11/12 11:52:28;;;;;;;61.17;33.63;;;;;;;;;;5055918;28;20490;-63
2021/11/12 11:54:55;;;;;;;83.80;44.85;;;;;;;;;;5037896;28;20523;-63
2021/11/12 11:57:23;;;;;;;64.38;35.80;;;;;;;;;;5055519;28;20358;-64
2021/11/12 11:59:49;;;;;;;61.55;33.58;;;;;;;;;;5054822;28;20247;-65
2021/11/12 12:02:20;;;;;;;72.45;37.40;;;;;;;;;;5052262;28;20029;-64
2021/11/12 12:05:00;;;;;;;84.30;44.65;;;;;;;;;;5057300;28;20056;-64
2021/11/12 12:07:28;;;;;;;75.15;39.60;;;;;;;;;;5070733;28;20121;-64
2021/11/12 12:09:59;;;;;;;79.93;46.28;;;;;;;;;;5055225;28;20139;-63
2021/11/12 12:12:34;;;;;;;80.20;43.72;;;;;;;;;;5035200;28;20079;-63
2021/11/12 12:15:08;;;;;;;79.53;41.92;;;;;;;;;;5053463;28;20040;-65
2021/11/12 12:17:34;;;;;;;73.05;40.47;;;;;;;;;;5053775;28;20017;-64
2021/11/12 13:25:28;;;;;;;;;;;;;;;;;;5048812;28;20098;-62
2021/11/12 13:28:10;;;;;;;89.60;46.13;;;;;;;;;;5053793;28;20047;-61
2021/11/12 13:30:36;;;;;;;;;;;;;;;;;;5054109;28;20021;-62
2021/11/12 13:33:03;;;;;;;80.03;41.80;;;;;;;;;;5052533;28;19948;-62
2021/11/12 13:35:33;;;;;;;82.10;39.90;;;;;;;;;;5051748;28;20032;-61
2021/11/12 13:38:00;;;;;;;83.78;42.80;;;;;;;;;;5052392;28;20426;-62
2021/11/12 13:40:30;;;;;;;87.20;42.08;;;;;;;;;;5052185;28;20531;-62
2021/11/12 13:42:56;;;;;;;95.43;49.08;;;;;;;;;;5052742;28;20363;-63
2021/11/12 13:45:24;;;;;;;82.93;42.85;;;;;;;;;;5049874;28;20029;-64
2021/11/12 13:48:19;;;;;;;87.00;44.92;;;;;;;;;;5052419;28;20226;-61
2021/11/12 13:50:53;;;;;;;68.50;37.65;;;;;;;;;;5035524;28;20378;-62
2021/11/12 13:53:20;;;;;;;77.60;39.70;;;;;;;;;;5053601;28;20116;-61
2021/11/12 13:55:46;;;;;;;68.95;37.20;;;;;;;;;;5053581;28;20029;-61
2021/11/12 13:58:12;;;;;;;71.55;41.13;;;;;;;;;;5053526;28;20028;-62
2021/11/12 14:00:38;;;;;;;70.03;39.47;;;;;;;;;;5053186;28;20546;-63
2021/11/12 14:03:07;;;;;;;162.57;82.00;;;;;;;;;;5035603;28;20468;-62
2021/11/12 14:05:34;;;;;;;74.53;40.10;;;;;;;;;;5053727;28;20060;-60
2021/11/12 14:08:11;;;;;;;86.65;43.33;;;;;;;;;;5050646;28;20081;-62
2021/11/12 14:10:40;;;;;;;79.50;40.90;;;;;;;;;;5051783;28;20021;-61
2021/11/12 14:13:07;;;;;;;74.90;40.60;;;;;;;;;;5052357;28;20056;-62
2021/11/12 14:15:39;;;;;;;85.97;44.40;;;;;;;;;;5052464;28;20485;-61
2021/11/12 14:18:16;;;;;;;77.20;39.60;;;;;;;;;;5053263;28;20065;-62
2021/11/12 14:20:53;;;;;;;72.40;39.20;;;;;;;;;;5035085;28;20413;-61
2021/11/12 14:23:23;;;;;;;86.63;45.35;;;;;;;;;;5035344;28;20527;-61
2021/11/12 14:26:16;;;;;;;102.63;49.72;;;;;;;;;;5053152;28;20029;-62
2021/11/12 14:28:57;;;;;;;70.32;40.13;;;;;;;;;;5053005;28;20025;-61
2021/11/12 14:32:24;;;;;;;120.47;60.03;;;;;;;;;;5052911;28;20121;-62
2021/11/12 14:39:43;;;;;;;86.80;46.35;;;;;;;;;;5048385;28;20038;-62
2021/11/12 14:44:59;;;;;;;80.97;43.40;;;;;;;;;;5052840;28;20037;-64
2021/11/12 14:47:41;;;;;;;79.65;41.17;;;;;;;;;;5052897;28;20029;-62
2021/11/12 14:50:25;;;;;;;70.75;37.63;;;;;;;;;;5052948;28;20032;-65
2021/11/12 14:53:19;;;;;;;72.88;39.13;;;;;;;;;;5052846;28;20549;-67
2021/11/12 14:55:49;;;;;;;95.50;50.38;;;;;;;;;;5052525;28;20428;-62
2021/11/12 14:58:17;;;;;;;85.13;46.17;;;;;;;;;;5052703;28;20025;-62
2021/11/12 15:00:44;;;;;;;73.60;40.03;;;;;;;;;;5052748;28;20028;-64
2021/11/12 15:03:11;;;;;;;62.83;35.00;;;;;;;;;;5052534;28;20027;-65
2021/11/12 15:05:40;;;;;;;56.88;32.65;;;;;;;;;;5052592;28;20068;-66
2021/11/12 15:08:12;;;;;;;57.75;31.40;;;;;;;;;;5051361;28;20377;-64
2021/11/12 15:10:40;;;;;;;76.75;41.10;;;;;;;;;;5052692;28;20108;-63
2021/11/12 15:13:06;;;;;;;73.78;43.45;;;;;;;;;;5058202;28;20048;-63
2021/11/12 15:15:33;;;;;;;77.43;44.63;;;;;;;;;;5054444;28;20033;-62
2021/11/12 15:18:04;;;;;;;88.05;46.95;;;;;;;;;;5072523;28;20037;-63
2021/11/12 15:20:30;;;;;;;72.32;41.30;;;;;;;;;;5072580;28;20530;-63
2021/11/12 15:23:29;;;;;;;84.28;47.00;;;;;;;;;;5073445;28;20024;-67
2021/11/12 15:28:45;;;;;;;82.68;44.22;;;;;;;;;;5076414;28;20029;-64
2021/11/12 15:33:44;;;;;;;88.03;45.20;;;;;;;;;;5076120;28;20123;-63
2021/11/12 15:36:14;;;;;;;85.13;45.67;;;;;;;;;;5076227;28;20029;-64
2021/11/12 15:41:29;;;;;;;96.72;49.28;;;;;;;;;;5076204;28;20029;-64
2021/11/12 15:44:02;;;;;;;87.63;44.03;;;;;;;;;;5076058;28;20159;-61
2021/11/12 15:46:32;;;;;;;88.00;45.08;;;;;;;;;;5058136;28;20553;-62
2021/11/12 15:48:58;;;;;;;85.95;43.88;;;;;;;;;;5058038;28;20028;-62
2021/11/12 15:51:39;;;;;;;88.38;44.92;;;;;;;;;;5075970;28;20020;-62
2021/11/12 15:54:30;;;;;;;75.22;39.83;;;;;;;;;;5057933;28;20409;-64
2021/11/12 15:57:38;;;;;;;71.18;37.30;;;;;;;;;;5057996;28;20457;-63
2021/11/12 16:00:10;;;;;;;79.63;40.80;;;;;;;;;;5054600;28;20033;-64
2021/11/12 16:02:55;;;;;;;86.82;42.28;;;;;;;;;;5054772;28;20025;-62
2021/11/12 16:08:06;;;;;;;69.53;35.55;;;;;;;;;;5075579;28;20020;-62
2021/11/12 16:19:40;;;;;;;65.82;33.65;;;;;;;;;;5075513;28;20467;-63
2021/11/12 16:22:11;;;;;;;65.03;33.80;;;;;;;;;;5063899;28;20047;-62
2021/11/12 16:27:19;;;;;;;77.63;40.70;;;;;;;;;;5075115;28;20102;-64
2021/11/12 16:29:48;;;;;;;97.68;49.30;;;;;;;;;;5074817;28;20419;-62
2021/11/12 16:32:26;;;;;;;101.90;50.70;;;;;;;;;;5075497;28;20461;-63
2021/11/12 16:35:01;;;;;;;89.05;49.00;;;;;;;;;;5074545;28;20118;-63
2021/11/12 16:37:29;;;;;;;82.10;44.90;;;;;;;;;;5057172;28;20025;-63
2021/11/12 16:40:03;;;;;;;94.60;48.88;;;;;;;;;;5074892;28;20028;-64
2021/11/12 16:45:19;;;;;;;102.32;50.30;;;;;;;;;;5054944;28;20136;-63
2021/11/12 16:50:31;;;;;;;83.88;43.30;;;;;;;;;;5054761;28;20417;-62
2021/11/12 16:58:09;;;;;;;110.95;56.50;;;;;;;;;;5054665;28;20378;-65
2021/11/12 17:05:52;;;;;;;97.45;49.72;;;;;;;;;;5054282;28;20494;-64
2021/11/12 17:19:21;;;;;;;104.60;52.65;;;;;;;;;;5054188;28;20071;-65
2021/11/12 17:51:49;;;;;;;100.47;48.67;;;;;;;;;;5033746;28;20393;-62
2021/11/12 18:02:26;;;;;;;111.95;54.22;;;;;;;;;;5053239;28;20040;-62
2021/11/12 18:05:03;;;;;;;;;;;;;;;;;;5053886;28;20060;-62
2021/11/12 18:24:16;;;;;;;111.90;58.70;;;;;;;;;;5073116;28;20036;-63
2021/11/12 21:46:43;;;;;;;104.40;46.80;;;;;;;;;;5053791;28;20033;-61
2021/11/12 21:49:09;;;;;;;109.40;49.35;;;;;;;;;;5035868;28;20437;-62
2021/11/12 21:51:41;;;;;;;112.38;46.92;;;;;;;;;;5053387;28;20028;-63
2021/11/12 21:54:07;;;;;;;;;;;;;;;;;;5054180;28;20020;-62
2021/11/12 21:56:33;;;;;;;100.68;46.15;;;;;;;;;;5053555;28;19956;-62
2021/11/12 21:59:00;;;;;;;112.22;51.80;;;;;;;;;;5053713;28;20025;-63
2021/11/12 22:01:26;;;;;;;106.55;49.28;;;;;;;;;;5053583;28;20095;-64
2021/11/12 22:03:53;;;;;;;117.38;52.65;;;;;;;;;;5035687;28;20032;-62
2021/11/12 22:06:19;;;;;;;115.75;52.88;;;;;;;;;;5053736;28;20131;-63
2021/11/12 22:08:46;;;;;;;111.30;51.90;;;;;;;;;;5053176;28;20024;-63
2021/11/12 22:11:12;;;;;;;117.70;53.30;;;;;;;;;;5053487;28;20029;-62
2021/11/12 22:13:39;;;;;;;118.07;50.60;;;;;;;;;;5025281;28;20483;-62
2021/11/12 22:16:06;;;;;;;106.57;48.45;;;;;;;;;;5033260;28;20458;-62
2021/11/12 22:18:32;;;;;;;100.20;46.50;;;;;;;;;;5033439;28;20021;-62
2021/11/12 22:20:58;;;;;;;107.65;48.22;;;;;;;;;;5033493;28;20029;-62
2021/11/12 22:23:25;;;;;;;105.80;49.70;;;;;;;;;;5033380;28;20036;-61
2021/11/12 22:25:54;;;;;;;112.07;49.47;;;;;;;;;;5033407;28;20058;-64
2021/11/12 22:28:20;;;;;;;109.07;48.50;;;;;;;;;;5033389;28;20107;-62
2021/11/12 22:30:47;;;;;;;94.95;46.67;;;;;;;;;;5015599;28;20451;-62
2021/11/12 22:33:13;;;;;;;97.80;44.72;;;;;;;;;;5015003;28;20454;-62
2021/11/12 22:35:39;;;;;;;98.05;46.78;;;;;;;;;;5015403;28;20120;-62
2021/11/12 22:38:07;;;;;;;110.35;50.10;;;;;;;;;;5015498;28;20029;-62
2021/11/12 22:40:33;;;;;;;131.35;56.35;;;;;;;;;;5033221;28;20385;-61
2021/11/12 22:42:59;;;;;;;129.40;59.78;;;;;;;;;;5015420;28;20441;-64
2021/11/12 22:45:26;;;;;;;141.43;63.53;;;;;;;;;;5030572;28;20026;-61
2021/11/12 22:47:52;;;;;;;145.32;65.70;;;;;;;;;;5032971;28;20026;-61
2021/11/12 22:50:18;;;;;;;148.20;65.93;;;;;;;;;;5033065;28;20026;-61
2021/11/12 22:52:45;;;;;;;140.88;64.30;;;;;;;;;;5032973;28;20115;-61
2021/11/12 22:55:12;;;;;;;149.23;66.63;;;;;;;;;;5032570;28;20484;-62
2021/11/12 22:57:38;;;;;;;155.18;68.43;;;;;;;;;;5032807;28;20041;-63
2021/11/12 23:00:07;;;;;;;144.15;66.82;;;;;;;;;;5032913;28;20109;-63
2021/11/12 23:02:34;;;;;;;150.18;63.83;;;;;;;;;;5032838;28;20071;-62
2021/11/12 23:05:01;;;;;;;145.05;63.90;;;;;;;;;;5031563;28;20462;-62
2021/11/12 23:07:27;;;;;;;130.50;60.75;;;;;;;;;;5032717;28;20060;-62
2021/11/12 23:09:53;;;;;;;132.80;59.85;;;;;;;;;;5032830;28;20079;-61
2021/11/12 23:12:20;;;;;;;140.77;63.30;;;;;;;;;;5032863;28;20116;-62
2021/11/12 23:14:46;;;;;;;132.63;57.67;;;;;;;;;;5070696;28;20047;-63
2021/11/12 23:17:12;;;;;;;121.65;57.92;;;;;;;;;;5054592;28;20128;-61
2021/11/12 23:19:38;;;;;;;130.73;56.75;;;;;;;;;;5072536;28;20016;-62
2021/11/12 23:22:05;;;;;;;131.20;57.05;;;;;;;;;;5072657;28;20024;-62
2021/11/12 23:24:31;;;;;;;127.65;58.67;;;;;;;;;;5072311;28;20387;-62
2021/11/12 23:26:58;;;;;;;124.05;55.63;;;;;;;;;;5072453;28;20067;-64
2021/11/12 23:29:25;;;;;;;125.43;54.03;;;;;;;;;;5072660;28;20418;-63
2021/11/12 23:31:51;;;;;;;133.90;60.20;;;;;;;;;;5054439;28;20036;-62
2021/11/12 23:34:17;;;;;;;135.35;58.58;;;;;;;;;;5033129;28;20056;-64
2021/11/12 23:36:43;;;;;;;131.00;58.72;;;;;;;;;;5050365;28;20147;-65
2021/11/12 23:39:09;;;;;;;120.03;54.22;;;;;;;;;;5050619;28;20027;-64
2021/11/12 23:41:36;;;;;;;120.05;53.92;;;;;;;;;;5033065;28;20079;-64
2021/11/12 23:44:02;;;;;;;116.38;52.78;;;;;;;;;;5048025;28;20071;-66
2021/11/12 23:46:28;;;;;;;119.68;55.28;;;;;;;;;;5053642;28;20028;-64
2021/11/12 23:48:54;;;;;;;121.82;54.03;;;;;;;;;;5055167;28;20468;-65
2021/11/12 23:51:23;;;;;;;116.28;52.95;;;;;;;;;;5055090;28;20475;-65
2021/11/12 23:53:49;;;;;;;123.70;54.85;;;;;;;;;;5056114;28;20036;-67
2021/11/12 23:56:15;;;;;;;111.18;51.22;;;;;;;;;;5056004;28;20155;-66
2021/11/12 23:58:41;;;;;;;112.05;48.75;;;;;;;;;;5038083;28;20025;-65
